Terminal Aerodrome Forecast
Issued by NWS

Home | Current Version | Previous Version | Text Only | Print | Product List | Glossary On
Versions: 1 2 3 4 5 6 7 8 9 10 11 12 13 14 15 16 17 18 19
356
FTUS41 KGYX 130248 AAB
TAFLEB
TAF AMD
KLEB 130248Z 1303/1324 18004KT P6SM BKN018 OVC060
      TEMPO 1303/1304 -SHSN BKN025 OVC040
     FM130400 28005KT P6SM VCSH SCT015 BKN025 OVC035
     FM130900 27007KT P6SM SCT030 OVC045
     FM131500 28014G24KT P6SM BKN045 BKN070=

USA.gov is the U.S. government's official web portal to all federal, state and local government web resources and services.